Time;durP1;ratioP1;P1;durP2;ratioP2;P2;SDS_P1;SDS_P2;PMS_P1;PMS_P2;Temp;Humidity;BMP_temperature;BMP_pressure;BME280_temperature;BME280_humidity;BME280_pressure;Samples;Min_cycle;Max_cycle;Signal;HPM_P1;HPM_P2
2023/07/13 00:00:34;;;;;;;14.00;8.70;;;;;;;19.62;83.56;100230.14;106732;1259;98408;-81
2023/07/13 00:03:40;;;;;;;10.40;8.10;;;;;;;19.61;83.53;100227.41;106776;1254;99988;-81
2023/07/13 00:06:30;;;;;;;14.60;9.40;;;;;;;19.60;83.66;100220.66;106790;1258;101175;-81
2023/07/13 00:09:17;;;;;;;16.60;8.90;;;;;;;19.59;84.00;100219.17;106885;1254;98976;-81
2023/07/13 00:12:02;;;;;;;15.50;8.70;;;;;;;19.56;83.89;100215.51;106819;1254;96721;-82
2023/07/13 00:14:50;;;;;;;16.30;9.20;;;;;;;19.55;83.72;100214.94;106903;1254;96529;-81
2023/07/13 00:17:35;;;;;;;12.10;9.70;;;;;;;19.52;84.01;100214.27;107121;1254;100230;-81
2023/07/13 00:20:24;;;;;;;11.60;9.10;;;;;;;19.51;84.27;100211.32;107044;1259;99134;-82
2023/07/13 00:23:10;;;;;;;14.70;9.10;;;;;;;19.51;84.22;100210.17;106764;1260;97741;-81
2023/07/13 00:25:56;;;;;;;12.20;9.90;;;;;;;19.50;84.23;100202.72;106715;1257;96536;-81
2023/07/13 00:28:42;;;;;;;17.50;10.20;;;;;;;19.49;84.36;100203.03;106857;1260;97033;-82
2023/07/13 00:31:27;;;;;;;15.40;9.30;;;;;;;19.44;84.36;100207.98;106832;1260;100702;-82
2023/07/13 00:34:13;;;;;;;13.60;9.60;;;;;;;19.39;84.50;100212.15;106871;1257;99069;-81
2023/07/13 00:36:59;;;;;;;11.00;9.60;;;;;;;19.38;84.56;100213.33;106998;1254;97802;-82
2023/07/13 00:39:44;;;;;;;17.20;9.60;;;;;;;19.38;84.53;100208.38;106861;1254;95826;-81
2023/07/13 00:42:30;;;;;;;13.00;9.40;;;;;;;19.34;84.60;100205.50;106867;1253;95901;-81
2023/07/13 00:45:18;;;;;;;14.90;10.20;;;;;;;19.31;84.47;100209.30;106908;1257;101266;-81
2023/07/13 00:48:05;;;;;;;12.70;9.90;;;;;;;19.28;84.70;100213.92;106797;1254;100412;-81
2023/07/13 00:50:55;;;;;;;12.30;9.80;;;;;;;19.24;84.70;100215.03;107015;1259;99281;-81
2023/07/13 00:53:40;;;;;;;13.90;9.50;;;;;;;19.23;84.91;100219.20;106870;1260;97023;-81
2023/07/13 00:56:28;;;;;;;11.90;8.60;;;;;;;19.24;84.87;100217.48;106906;1254;97052;-81
2023/07/13 00:59:17;;;;;;;11.80;9.10;;;;;;;19.24;84.85;100211.44;106965;1255;100192;-81
2023/07/13 01:02:03;;;;;;;14.10;9.00;;;;;;;19.22;84.96;100213.23;106966;1259;99852;-82
2023/07/13 01:04:49;;;;;;;14.30;9.40;;;;;;;19.17;84.72;100212.07;106805;1257;98288;-81
2023/07/13 01:07:36;;;;;;;17.70;9.90;;;;;;;19.13;84.82;100213.02;107109;1254;97869;-82
2023/07/13 01:10:22;;;;;;;13.40;9.40;;;;;;;19.10;84.75;100217.17;106813;1254;96667;-81
2023/07/13 01:13:10;;;;;;;20.20;9.80;;;;;;;19.08;85.08;100214.61;106955;1254;101689;-82
2023/07/13 01:16:01;;;;;;;16.00;10.20;;;;;;;19.04;85.14;100220.20;106964;1254;100083;-81
2023/07/13 01:18:47;;;;;;;14.30;9.90;;;;;;;19.04;85.24;100225.34;106803;1258;98585;-81
2023/07/13 01:21:34;;;;;;;15.20;9.40;;;;;;;19.02;85.22;100226.20;106895;1257;96343;-81
2023/07/13 01:24:20;;;;;;;12.90;10.10;;;;;;;19.01;85.40;100223.70;107050;1255;96609;-82
2023/07/13 01:27:09;;;;;;;12.20;10.60;;;;;;;19.01;85.59;100228.73;106873;1260;101808;-83
2023/07/13 01:30:01;;;;;;;10.20;9.00;;;;;;;18.98;85.74;100234.95;106901;1258;99136;-82
2023/07/13 01:32:47;;;;;;;11.60;9.00;;;;;;;18.95;85.64;100243.20;106982;1257;97890;-81
2023/07/13 01:35:33;;;;;;;12.50;7.80;;;;;;;18.92;85.71;100243.59;106719;1260;97089;-81
2023/07/13 01:38:22;;;;;;;10.40;7.70;;;;;;;18.87;85.54;100235.52;106809;1259;97093;-82
2023/07/13 01:41:08;;;;;;;10.20;8.30;;;;;;;18.82;85.30;100232.25;106939;1260;100114;-81
2023/07/13 01:43:53;;;;;;;10.20;8.20;;;;;;;18.79;85.55;100231.51;106710;1261;99160;-81
2023/07/13 01:46:39;;;;;;;13.80;9.60;;;;;;;18.80;85.84;100231.73;106835;1258;97771;-81
2023/07/13 01:49:24;;;;;;;16.60;10.10;;;;;;;18.77;85.80;100232.67;106858;1259;96721;-82
2023/07/13 01:52:10;;;;;;;16.90;10.10;;;;;;;18.73;86.01;100229.79;106830;1254;96529;-82
2023/07/13 01:54:55;;;;;;;17.60;9.70;;;;;;;18.73;86.30;100226.31;106869;1257;101794;-82
2023/07/13 01:57:41;;;;;;;15.80;11.10;;;;;;;18.74;86.39;100223.95;106744;1254;100473;-81
2023/07/13 02:00:26;;;;;;;14.00;9.80;;;;;;;18.76;86.45;100223.04;106811;1260;98041;-81
2023/07/13 02:03:17;;;;;;;16.30;9.90;;;;;;;18.74;86.50;100216.73;107193;1254;96606;-81
2023/07/13 02:06:03;;;;;;;14.80;10.10;;;;;;;18.70;86.32;100218.56;106829;1257;97125;-81
2023/07/13 02:08:49;;;;;;;13.90;10.00;;;;;;;18.66;86.36;100220.84;106894;1257;99978;-82
2023/07/13 02:11:34;;;;;;;17.70;11.80;;;;;;;18.65;86.34;100216.77;107105;1258;100034;-82
2023/07/13 02:14:19;;;;;;;19.30;11.50;;;;;;;18.68;86.53;100218.54;106915;1254;97852;-81
2023/07/13 02:17:05;;;;;;;17.20;11.60;;;;;;;18.67;86.67;100219.34;106959;1257;96495;-82
2023/07/13 02:19:51;;;;;;;18.20;10.40;;;;;;;18.67;86.99;100219.02;106961;1254;96514;-82
2023/07/13 02:22:36;;;;;;;18.30;12.20;;;;;;;18.68;86.93;100218.65;106887;1257;101840;-82
2023/07/13 02:25:22;;;;;;;17.10;12.40;;;;;;;18.68;87.35;100221.79;106876;1254;100083;-82
2023/07/13 02:28:08;;;;;;;17.40;12.10;;;;;;;18.66;87.50;100226.00;106825;1257;97738;-82
2023/07/13 02:30:54;;;;;;;16.50;11.50;;;;;;;18.65;87.41;100227.87;106722;1256;97521;-81
2023/07/13 02:33:39;;;;;;;17.50;11.00;;;;;;;18.63;87.47;100223.88;106918;1256;97051;-82
2023/07/13 02:36:25;;;;;;;16.10;12.20;;;;;;;18.63;87.47;100222.29;107077;1257;101320;-81
2023/07/13 02:39:12;;;;;;;15.10;11.60;;;;;;;18.62;87.47;100225.17;106856;1254;107874;-81
2023/07/13 02:41:58;;;;;;;20.30;11.90;;;;;;;18.62;87.57;100221.27;106890;1254;97699;-82
2023/07/13 02:44:44;;;;;;;18.70;11.20;;;;;;;18.60;87.56;100219.19;106757;1254;97598;-82
2023/07/13 02:47:32;;;;;;;17.70;10.40;;;;;;;18.60;87.34;100220.04;106820;1255;96488;-81
2023/07/13 02:50:18;;;;;;;18.50;11.40;;;;;;;18.58;87.53;100225.23;106888;1254;99996;-81
2023/07/13 02:53:04;;;;;;;23.80;11.70;;;;;;;18.58;87.60;100227.50;106788;1260;100955;-81
2023/07/13 02:55:49;;;;;;;18.80;11.10;;;;;;;18.58;87.82;100220.61;106764;1260;99155;-81
2023/07/13 02:58:36;;;;;;;19.70;12.50;;;;;;;18.57;88.02;100214.30;106899;1258;96655;-82
2023/07/13 03:01:22;;;;;;;15.50;12.30;;;;;;;18.57;88.00;100215.39;106791;1257;97132;-82
2023/07/13 03:04:08;;;;;;;16.20;11.60;;;;;;;18.59;88.29;100218.30;107122;1259;100114;-81
2023/07/13 03:06:57;;;;;;;21.10;12.90;;;;;;;18.58;88.51;100214.85;106841;1259;99241;-82
2023/07/13 03:09:44;;;;;;;17.00;11.60;;;;;;;18.59;88.58;100208.79;106915;1257;98456;-82
2023/07/13 03:12:30;;;;;;;14.10;11.50;;;;;;;18.59;88.51;100206.40;106841;1259;96567;-82
2023/07/13 03:15:16;;;;;;;21.00;11.40;;;;;;;18.58;88.05;100210.84;106878;1254;97036;-82
2023/07/13 03:18:02;;;;;;;18.30;11.10;;;;;;;18.55;88.37;100212.80;106969;1253;100018;-81
2023/07/13 03:20:52;;;;;;;16.90;11.20;;;;;;;18.55;88.35;100210.80;106986;1260;99738;-81
2023/07/13 03:23:38;;;;;;;16.40;11.70;;;;;;;18.56;88.23;100209.34;106746;1256;97713;-81
2023/07/13 03:26:23;;;;;;;16.90;10.90;;;;;;;18.55;88.18;100209.98;106810;1259;96534;-81
2023/07/13 03:29:09;;;;;;;14.80;11.10;;;;;;;18.53;88.18;100203.31;106891;1256;97110;-81
2023/07/13 03:31:54;;;;;;;15.30;11.40;;;;;;;18.51;88.17;100207.32;106902;1254;100526;-82
2023/07/13 03:34:42;;;;;;;16.70;11.30;;;;;;;18.51;88.22;100206.83;106727;1253;99084;-81
2023/07/13 03:37:28;;;;;;;15.40;11.00;;;;;;;18.51;88.20;100204.61;106912;1254;97875;-82
2023/07/13 03:40:14;;;;;;;16.50;10.00;;;;;;;18.53;88.45;100206.73;106826;1260;96836;-81
2023/07/13 03:43:02;;;;;;;16.90;12.20;;;;;;;18.55;88.65;100207.44;107051;1254;97551;-81
2023/07/13 03:45:49;;;;;;;20.10;11.50;;;;;;;18.58;88.72;100208.08;106798;1257;100037;-81
2023/07/13 03:48:35;;;;;;;15.40;11.60;;;;;;;18.61;88.94;100211.11;106763;1254;99167;-81
2023/07/13 03:51:21;;;;;;;16.60;12.60;;;;;;;18.66;89.11;100216.94;106780;1257;106725;-82
2023/07/13 03:54:07;;;;;;;17.70;12.40;;;;;;;18.69;89.34;100217.67;106897;1256;96597;-82
2023/07/13 03:56:53;;;;;;;19.90;13.00;;;;;;;18.70;89.54;100218.34;106960;1253;96499;-82
2023/07/13 03:59:40;;;;;;;21.60;12.50;;;;;;;18.75;89.60;100219.46;106923;1258;99998;-83
2023/07/13 04:02:27;;;;;;;20.80;11.90;;;;;;;18.80;89.82;100222.67;106912;1253;99237;-82
2023/07/13 04:05:13;;;;;;;18.60;13.10;;;;;;;18.83;89.67;100230.32;106861;1256;97889;-82
2023/07/13 04:07:59;;;;;;;21.20;12.20;;;;;;;18.85;89.98;100232.41;107236;1253;96544;-82
2023/07/13 04:10:45;;;;;;;17.00;11.20;;;;;;;18.91;90.36;100238.70;106849;1253;97061;-83
2023/07/13 04:13:30;;;;;;;15.70;12.20;;;;;;;18.94;90.42;100242.16;106770;1256;100096;-83
2023/07/13 04:16:17;;;;;;;18.30;12.90;;;;;;;18.97;90.59;100243.00;106904;1254;100447;-83
2023/07/13 04:19:03;;;;;;;16.90;11.50;;;;;;;18.99;90.81;100248.20;106716;1254;97782;-83
2023/07/13 04:21:49;;;;;;;13.50;10.70;;;;;;;19.02;90.98;100247.32;106787;1257;96483;-83
2023/07/13 04:24:35;;;;;;;18.60;10.70;;;;;;;19.06;91.10;100243.52;106762;1256;95672;-83
2023/07/13 04:27:20;;;;;;;16.70;12.80;;;;;;;19.09;91.63;100242.24;107039;1253;100647;-83
2023/07/13 04:30:08;;;;;;;22.40;13.30;;;;;;;19.11;91.87;100242.29;107000;1257;99135;-83
2023/07/13 04:32:54;;;;;;;20.60;14.30;;;;;;;19.14;92.32;100251.92;106838;1253;97813;-83
2023/07/13 04:35:39;;;;;;;21.50;16.00;;;;;;;19.17;93.00;100258.61;106700;1257;96568;-83
2023/07/13 04:38:28;;;;;;;20.50;15.10;;;;;;;19.23;93.33;100257.33;106901;1256;96523;-83
2023/07/13 04:41:15;;;;;;;19.90;15.40;;;;;;;19.30;93.76;100261.98;106768;1254;100055;-83
2023/07/13 04:44:02;;;;;;;18.10;14.40;;;;;;;19.35;93.95;100267.23;106777;1254;99135;-83
2023/07/13 04:46:48;;;;;;;18.50;14.50;;;;;;;19.42;94.17;100273.25;106547;1253;106414;-83
2023/07/13 04:49:34;;;;;;;24.10;15.30;;;;;;;19.46;94.24;100271.94;106667;1255;96642;-84
2023/07/13 04:52:21;;;;;;;21.80;15.30;;;;;;;19.50;94.57;100277.54;106422;1257;97051;-85
2023/07/13 04:55:07;;;;;;;19.80;14.10;;;;;;;19.54;94.32;100285.90;106603;1253;100670;-82
2023/07/13 04:57:53;;;;;;;21.20;14.90;;;;;;;19.59;94.52;100286.29;106494;1254;99692;-81
2023/07/13 05:00:39;;;;;;;22.60;15.40;;;;;;;19.63;94.79;100287.05;106507;1254;97745;-82
2023/07/13 05:03:25;;;;;;;24.90;16.60;;;;;;;19.68;94.85;100285.80;106356;1253;96601;-82
2023/07/13 05:06:10;;;;;;;26.00;16.00;;;;;;;19.74;95.05;100287.89;106479;1256;97166;-83
2023/07/13 05:08:56;;;;;;;20.40;15.30;;;;;;;19.80;95.12;100289.42;106539;1254;101259;-82
2023/07/13 05:11:42;;;;;;;19.30;14.20;;;;;;;19.85;94.80;100291.33;106418;1253;99856;-83
2023/07/13 05:14:28;;;;;;;26.40;14.70;;;;;;;19.91;94.90;100300.77;106562;1259;97611;-82
2023/07/13 05:17:14;;;;;;;21.10;14.90;;;;;;;19.98;95.16;100297.25;106529;1253;96558;-83
2023/07/13 05:19:59;;;;;;;20.80;14.50;;;;;;;20.05;95.40;100301.34;106405;1254;97058;-82
2023/07/13 05:22:48;;;;;;;21.90;15.40;;;;;;;20.11;95.45;100301.25;106400;1257;101325;-80
2023/07/13 05:25:34;;;;;;;16.10;14.30;;;;;;;20.17;95.75;100303.70;106408;1257;117976;-82
2023/07/13 05:28:20;;;;;;;19.80;13.40;;;;;;;20.22;95.94;100309.11;106516;1257;97772;-81
2023/07/13 05:31:08;;;;;;;20.20;13.90;;;;;;;20.26;95.84;100316.23;106349;1256;96608;-83
2023/07/13 05:33:54;;;;;;;22.90;14.80;;;;;;;20.30;95.73;100315.34;106331;1253;96491;-81
2023/07/13 05:36:40;;;;;;;18.00;13.80;;;;;;;20.35;95.69;100319.64;106539;1256;101250;-81
2023/07/13 05:39:27;;;;;;;23.90;15.30;;;;;;;20.41;95.43;100324.86;106454;1253;99102;-82
2023/07/13 05:42:13;;;;;;;23.90;14.10;;;;;;;20.46;95.59;100326.86;106440;1255;97746;-82
2023/07/13 05:44:58;;;;;;;22.00;14.50;;;;;;;20.52;95.56;100326.43;106258;1260;96687;-82
2023/07/13 05:47:44;;;;;;;20.90;15.40;;;;;;;20.58;95.52;100327.89;106395;1256;95986;-83
2023/07/13 05:50:29;;;;;;;20.50;14.30;;;;;;;20.64;95.67;100326.20;106533;1256;100141;-81
2023/07/13 05:53:15;;;;;;;20.60;15.80;;;;;;;20.71;96.05;100315.11;106632;1254;100335;-83
2023/07/13 05:56:01;;;;;;;23.70;16.10;;;;;;;20.79;96.72;100307.02;106315;1254;97826;-82
2023/07/13 05:58:48;;;;;;;44.30;35.50;;;;;;;20.85;96.27;100302.42;106135;1257;96638;-82
2023/07/13 06:01:34;;;;;;;24.90;19.90;;;;;;;20.90;96.31;100306.17;106184;1259;96694;-81
2023/07/13 06:04:20;;;;;;;21.80;15.70;;;;;;;20.97;96.37;100307.37;106405;1253;99961;-83
2023/07/13 06:07:05;;;;;;;19.30;14.30;;;;;;;21.09;96.03;100307.26;106505;1259;99969;-82
2023/07/13 06:09:51;;;;;;;23.00;14.50;;;;;;;21.17;95.44;100305.79;106491;1254;99025;-81
2023/07/13 06:12:36;;;;;;;16.40;13.20;;;;;;;21.25;95.00;100308.08;106180;1259;96607;-82
2023/07/13 06:15:21;;;;;;;18.60;14.20;;;;;;;21.32;94.96;100311.33;106358;1256;97178;-82
2023/07/13 06:18:07;;;;;;;19.10;14.80;;;;;;;21.39;94.95;100311.05;106471;1253;100571;-82
2023/07/13 06:20:52;;;;;;;17.20;13.90;;;;;;;21.49;95.39;100307.61;106359;1259;99180;-82
2023/07/13 06:23:38;;;;;;;18.40;13.10;;;;;;;21.62;95.32;100301.94;106552;1257;97679;-81
2023/07/13 06:26:24;;;;;;;15.50;12.60;;;;;;;21.76;95.40;100298.83;106573;1258;96602;-82
2023/07/13 06:29:09;;;;;;;19.20;12.10;;;;;;;21.90;95.07;100298.15;106262;1253;98216;-83
2023/07/13 06:31:55;;;;;;;16.50;10.70;;;;;;;22.03;94.69;100299.45;106407;1257;101340;-83
2023/07/13 06:34:40;;;;;;;12.80;11.10;;;;;;;22.17;94.43;100301.23;106259;1256;100040;-83
2023/07/13 06:37:26;;;;;;;13.00;10.00;;;;;;;22.33;94.66;100300.38;106339;1253;97801;-84
2023/07/13 06:40:11;;;;;;;14.00;11.70;;;;;;;22.49;94.12;100299.41;106252;1253;96611;-82
2023/07/13 06:42:57;;;;;;;14.90;11.30;;;;;;;22.62;93.48;100295.67;106371;1256;96527;-82
2023/07/13 06:45:47;;;;;;;15.10;11.90;;;;;;;22.73;92.64;100292.02;106279;1255;101313;-83
2023/07/13 06:48:32;;;;;;;17.50;12.60;;;;;;;22.86;93.07;100296.33;106324;1256;100419;-84
2023/07/13 06:51:18;;;;;;;14.00;12.50;;;;;;;22.99;92.93;100300.02;106470;1254;98393;-83
2023/07/13 06:54:03;;;;;;;14.10;12.70;;;;;;;23.11;92.29;100301.65;106279;1256;96680;-81
2023/07/13 06:56:49;;;;;;;17.10;12.30;;;;;;;23.23;92.01;100298.95;106399;1253;97121;-82
2023/07/13 06:59:34;;;;;;;15.30;12.30;;;;;;;23.36;91.66;100294.58;106610;1256;99945;-81
2023/07/13 07:02:19;;;;;;;15.50;13.30;;;;;;;23.47;90.96;100293.50;106401;1253;99129;-83
2023/07/13 07:05:05;;;;;;;18.50;11.90;;;;;;;23.59;90.56;100291.05;106479;1257;99025;-82
2023/07/13 07:07:54;;;;;;;14.30;10.30;;;;;;;23.71;90.06;100289.30;106419;1259;96661;-82
2023/07/13 07:10:40;;;;;;;15.50;11.20;;;;;;;23.84;89.95;100287.05;106677;1258;97054;-82
2023/07/13 07:13:28;;;;;;;12.80;10.20;;;;;;;23.97;89.60;100285.12;106603;1254;101348;-82
2023/07/13 07:16:13;;;;;;;13.10;10.00;;;;;;;24.08;88.11;100279.94;106544;1254;100323;-82
2023/07/13 07:18:59;;;;;;;17.20;11.40;;;;;;;24.18;86.96;100282.45;106415;1254;98580;-82
2023/07/13 07:21:44;;;;;;;9.60;8.60;;;;;;;24.27;85.85;100284.58;106516;1254;96668;-82
2023/07/13 07:24:30;;;;;;;13.10;10.30;;;;;;;24.38;85.41;100282.33;106656;1254;96581;-83
2023/07/13 07:27:16;;;;;;;14.50;10.00;;;;;;;24.48;84.84;100282.95;106481;1253;101747;-82
2023/07/13 07:30:02;;;;;;;14.50;10.60;;;;;;;24.59;84.34;100282.70;106496;1254;100396;-82
2023/07/13 07:32:48;;;;;;;12.30;10.50;;;;;;;24.70;84.25;100282.39;106443;1256;99002;-81
2023/07/13 07:35:33;;;;;;;11.30;10.10;;;;;;;24.84;84.68;100285.15;106262;1253;96552;-82
2023/07/13 07:38:19;;;;;;;14.10;10.90;;;;;;;25.00;84.27;100282.46;106510;1257;97078;-83
2023/07/13 07:41:05;;;;;;;13.80;9.60;;;;;;;25.17;83.17;100280.53;106497;1253;100022;-82
2023/07/13 07:43:50;;;;;;;11.60;10.10;;;;;;;25.30;81.95;100274.86;106370;1256;99210;-82
2023/07/13 07:52:11;;;;;;;11.90;9.20;;;;;;;25.39;80.27;100266.45;103617;1294;635782;-82
2023/07/13 07:54:57;;;;;;;13.20;8.90;;;;;;;25.45;79.40;100273.77;105993;1269;96020;-83
2023/07/13 07:57:42;;;;;;;10.70;9.00;;;;;;;25.55;78.98;100275.14;105810;1266;96028;-82
2023/07/13 08:00:31;;;;;;;11.60;8.90;;;;;;;25.69;79.50;100276.61;105552;1265;97884;-81
2023/07/13 08:03:17;;;;;;;18.20;9.70;;;;;;;25.83;78.75;100279.94;105803;1269;99165;-83
2023/07/13 08:06:03;;;;;;;11.70;8.40;;;;;;;25.93;77.85;100279.64;106015;1266;123028;-83
2023/07/13 08:08:48;;;;;;;13.10;8.80;;;;;;;25.98;77.01;100280.13;106003;1262;95883;-82
2023/07/13 08:11:34;;;;;;;12.80;9.50;;;;;;;26.04;76.98;100279.81;105893;1266;95876;-81
2023/07/13 08:14:19;;;;;;;10.50;8.80;;;;;;;26.14;76.03;100277.68;106007;1263;97308;-82
2023/07/13 08:17:05;;;;;;;10.30;8.80;;;;;;;26.17;75.52;100275.38;105919;1263;99828;-82
2023/07/13 08:19:50;;;;;;;13.20;8.80;;;;;;;26.26;75.32;100275.66;105635;1263;97844;-82
2023/07/13 08:22:36;;;;;;;10.90;8.90;;;;;;;26.36;74.89;100278.71;105625;1261;95892;-81
2023/07/13 08:25:22;;;;;;;10.10;9.00;;;;;;;26.40;74.17;100276.99;105875;1263;96358;-82
2023/07/13 08:28:08;;;;;;;9.20;8.30;;;;;;;26.43;73.82;100275.13;106776;1251;100023;-82
2023/07/13 08:30:54;;;;;;;9.00;8.20;;;;;;;26.47;73.53;100273.10;106459;1256;99185;-82
2023/07/13 08:33:40;;;;;;;9.80;8.50;;;;;;;26.48;72.34;100274.57;106464;1251;97772;-81
2023/07/13 08:36:27;;;;;;;12.00;8.50;;;;;;;26.49;72.51;100268.77;106377;1256;95802;-82
2023/07/13 08:39:13;;;;;;;9.30;8.40;;;;;;;26.56;72.73;100276.29;106495;1251;95885;-81
2023/07/13 08:42:05;;;;;;;9.80;8.80;;;;;;;26.66;72.13;100278.05;106628;1251;99260;-83
2023/07/13 08:45:02;;;;;;;10.00;7.90;;;;;;;26.73;72.02;100280.94;106474;1251;100454;-82
2023/07/13 08:47:55;;;;;;;8.90;8.00;;;;;;;26.82;71.57;100281.61;106676;1253;97751;-81
2023/07/13 08:51:06;;;;;;;9.30;8.30;;;;;;;26.87;71.63;100288.66;107716;1251;95842;-81
2023/07/13 08:53:55;;;;;;;9.30;8.20;;;;;;;26.91;70.74;100291.11;106373;1254;95790;-81
2023/07/13 08:56:44;;;;;;;9.00;7.60;;;;;;;26.90;70.49;100297.35;106740;1251;99881;-81
2023/07/13 08:59:34;;;;;;;10.10;8.60;;;;;;;26.88;69.93;100300.36;106833;1250;99123;-81
2023/07/13 09:02:28;;;;;;;9.50;8.60;;;;;;;26.82;69.32;100303.54;106732;1251;97745;-82
2023/07/13 09:05:22;;;;;;;11.80;7.60;;;;;;;26.79;69.44;100303.66;108674;1253;93722;-83
2023/07/13 09:08:26;;;;;;;12.00;7.50;;;;;;;26.80;69.42;100296.20;107725;1253;95259;-83
2023/07/13 09:11:27;;;;;;;10.20;8.00;;;;;;;26.83;68.79;100292.47;106598;1256;99891;-82
2023/07/13 09:14:33;;;;;;;9.20;8.30;;;;;;;26.79;67.87;100292.70;106498;1257;100366;-82
2023/07/13 09:17:25;;;;;;;9.90;8.20;;;;;;;26.71;67.41;100290.83;106510;1254;97692;-81
2023/07/13 09:20:23;;;;;;;7.90;7.10;;;;;;;26.65;67.70;100291.04;106335;1259;95935;-81
2023/07/13 09:23:15;;;;;;;8.10;7.30;;;;;;;26.60;66.94;100288.20;106314;1259;96824;-81
2023/07/13 09:26:06;;;;;;;9.90;7.60;;;;;;;26.54;66.72;100283.80;106736;1253;99191;-81
2023/07/13 09:28:57;;;;;;;7.90;7.20;;;;;;;26.51;67.00;100278.30;106652;1254;99165;-81
2023/07/13 09:31:49;;;;;;;8.90;7.70;;;;;;;26.52;67.29;100273.23;106635;1253;98305;-81
2023/07/13 09:34:35;;;;;;;8.10;7.30;;;;;;;26.51;67.34;100268.90;106699;1254;95705;-81
2023/07/13 09:40:25;;;;;;;8.90;7.40;;;;;;;26.56;66.72;100268.17;103631;1290;634920;-81
2023/07/13 09:43:15;;;;;;;8.30;7.40;;;;;;;26.49;66.59;100271.52;107306;1270;94528;-81
2023/07/13 09:46:01;;;;;;;10.50;5.70;;;;;;;26.45;66.33;100280.20;106076;1268;95900;-82
2023/07/13 09:48:46;;;;;;;11.80;5.10;;;;;;;26.18;64.32;100277.83;106765;1254;97913;-81
2023/07/13 09:51:32;;;;;;;6.00;4.70;;;;;;;25.81;63.90;100277.33;106964;1257;99803;-81
2023/07/13 09:54:20;;;;;;;5.30;4.20;;;;;;;25.53;63.71;100275.99;106940;1258;111032;-81
2023/07/13 09:57:18;;;;;;;6.50;4.50;;;;;;;25.25;63.74;100284.02;106863;1251;95914;-81
2023/07/13 10:00:20;;;;;;;6.70;4.40;;;;;;;25.04;64.15;100285.89;106849;1254;95844;-81
2023/07/13 10:03:17;;;;;;;5.50;4.20;;;;;;;24.84;64.17;100293.76;106929;1257;99118;-80
2023/07/13 10:06:22;;;;;;;12.40;4.10;;;;;;;24.66;64.62;100296.45;107085;1251;100720;-81
2023/07/13 10:09:09;;;;;;;6.50;3.90;;;;;;;24.53;65.19;100284.61;107086;1251;98926;-80
2023/07/13 10:11:55;;;;;;;9.80;4.20;;;;;;;24.44;65.78;100274.94;107009;1254;95800;-81
2023/07/13 10:14:42;;;;;;;4.40;4.00;;;;;;;24.32;66.15;100268.40;106972;1254;96027;-81
2023/07/13 10:17:32;;;;;;;5.40;4.00;;;;;;;24.17;66.80;100280.71;107003;1254;98674;-82
2023/07/13 10:20:20;;;;;;;7.20;3.90;;;;;;;24.06;67.49;100299.88;107172;1251;100465;-81
2023/07/13 10:23:15;;;;;;;4.80;4.30;;;;;;;23.97;68.42;100327.70;107031;1257;97878;-81
2023/07/13 10:26:01;;;;;;;10.00;5.30;;;;;;;23.88;69.62;100355.53;107040;1255;95909;-80
2023/07/13 10:28:52;;;;;;;21.00;7.90;;;;;;;23.70;71.20;100375.73;107117;1251;95730;-81
2023/07/13 10:31:39;;;;;;;12.90;5.80;;;;;;;23.40;72.89;100370.44;107045;1251;99916;-81
2023/07/13 10:34:25;;;;;;;10.50;5.40;;;;;;;23.14;73.88;100364.65;106908;1264;99201;-81
2023/07/13 10:37:24;;;;;;;11.70;5.70;;;;;;;22.84;74.83;100365.86;106834;1251;98522;-82
2023/07/13 10:40:19;;;;;;;16.30;7.50;;;;;;;22.56;76.56;100361.82;106911;1251;95916;-82
2023/07/13 10:43:16;;;;;;;9.20;4.60;;;;;;;22.34;77.01;100374.17;107020;1254;95882;-79
2023/07/13 10:46:03;;;;;;;8.10;4.10;;;;;;;22.07;75.77;100385.21;106852;1260;99679;-81
2023/07/13 10:48:53;;;;;;;6.40;3.60;;;;;;;21.87;74.79;100390.20;106978;1254;99098;-81
2023/07/13 10:51:40;;;;;;;7.60;4.10;;;;;;;21.76;74.73;100398.95;106800;1254;98543;-81
2023/07/13 10:54:34;;;;;;;6.10;3.80;;;;;;;21.69;75.30;100402.23;106829;1257;96341;-81
2023/07/13 10:57:21;;;;;;;7.30;4.40;;;;;;;21.64;76.06;100402.27;106737;1254;96272;-81
2023/07/13 11:00:18;;;;;;;8.70;4.40;;;;;;;21.61;77.05;100401.97;107175;1257;100018;-81
2023/07/13 11:03:04;;;;;;;8.40;5.10;;;;;;;21.53;78.12;100382.09;106768;1257;100315;-81
2023/07/13 11:06:03;;;;;;;10.20;5.80;;;;;;;21.43;78.99;100369.48;107102;1254;97766;-81
2023/07/13 11:08:55;;;;;;;7.90;5.10;;;;;;;21.25;79.40;100368.05;106891;1254;95835;-81
2023/07/13 11:11:41;;;;;;;7.50;5.50;;;;;;;21.01;80.45;100371.23;106795;1254;95877;-80
2023/07/13 11:15:06;;;;;;;7.00;5.50;;;;;;;20.84;81.68;100377.62;106875;1257;100702;-80
2023/07/13 11:18:00;;;;;;;9.00;6.30;;;;;;;20.77;82.80;100376.08;108566;1254;100469;-81
2023/07/13 11:20:48;;;;;;;9.50;5.50;;;;;;;20.78;83.22;100370.59;107357;1257;97768;-81
2023/07/13 11:23:44;;;;;;;8.50;5.30;;;;;;;20.77;83.34;100372.77;106778;1257;95865;-80
2023/07/13 11:26:46;;;;;;;9.10;6.70;;;;;;;20.77;84.29;100369.00;106666;1260;95702;-81
2023/07/13 11:29:34;;;;;;;8.10;5.90;;;;;;;20.80;84.82;100372.52;106932;1254;99352;-82
2023/07/13 11:32:29;;;;;;;10.40;6.50;;;;;;;20.80;85.00;100374.98;106856;1254;99806;-81
2023/07/13 11:35:23;;;;;;;9.30;6.80;;;;;;;20.88;85.55;100381.04;106927;1254;99491;-80
2023/07/13 11:38:19;;;;;;;8.80;6.20;;;;;;;20.94;85.77;100382.50;106922;1254;95929;-80
2023/07/13 11:41:21;;;;;;;8.70;6.60;;;;;;;20.98;85.93;100377.02;107121;1254;95800;-81
2023/07/13 11:44:14;;;;;;;9.70;6.00;;;;;;;21.01;86.02;100376.89;106806;1259;99484;-81
2023/07/13 11:47:09;;;;;;;8.60;6.80;;;;;;;21.02;86.35;100380.79;106615;1254;99764;-81
2023/07/13 11:49:59;;;;;;;8.10;6.30;;;;;;;21.02;86.64;100383.55;106562;1254;98649;-81
2023/07/13 11:52:45;;;;;;;10.30;6.80;;;;;;;21.02;86.70;100385.52;106637;1254;95915;-82
2023/07/13 11:55:31;;;;;;;9.00;6.50;;;;;;;21.06;87.29;100388.01;106530;1257;95876;-81
2023/07/13 11:58:23;;;;;;;9.80;6.80;;;;;;;21.13;87.83;100389.87;106750;1254;99262;-81
2023/07/13 12:01:24;;;;;;;9.90;6.50;;;;;;;21.21;87.46;100388.46;106677;1257;99808;-82
2023/07/13 12:04:28;;;;;;;11.30;7.10;;;;;;;21.26;86.96;100387.96;106546;1259;97821;-81
2023/07/13 12:07:16;;;;;;;11.70;7.40;;;;;;;21.29;86.12;100389.73;106684;1257;95208;-82
2023/07/13 12:10:17;;;;;;;10.80;6.90;;;;;;;21.31;86.23;100394.04;106638;1259;95829;-82
2023/07/13 12:13:05;;;;;;;;;;;;;;;21.36;86.49;100399.69;106657;1254;99787;-82
2023/07/13 12:15:51;;;;;;;7.90;5.70;;;;;;;21.39;86.91;100400.54;106648;1257;100385;-82
2023/07/13 12:18:38;;;;;;;6.80;5.70;;;;;;;21.45;87.42;100396.53;106597;1267;98573;-82
2023/07/13 12:21:33;;;;;;;9.40;6.80;;;;;;;21.52;87.25;100397.55;106625;1254;95807;-82
2023/07/13 12:24:22;;;;;;;9.20;6.30;;;;;;;21.59;86.74;100397.77;106606;1257;95823;-82
2023/07/13 12:27:18;;;;;;;9.40;6.60;;;;;;;21.66;87.21;100395.84;106758;1254;99311;-81
2023/07/13 12:30:30;;;;;;;8.00;6.40;;;;;;;21.72;86.68;100398.11;106950;1254;99135;-82
2023/07/13 12:33:16;;;;;;;10.50;6.70;;;;;;;21.77;86.43;100406.91;106868;1257;97680;-83
2023/07/13 12:36:06;;;;;;;8.30;6.30;;;;;;;21.82;86.56;100412.30;107696;1254;95842;-82
2023/07/13 12:38:52;;;;;;;7.60;6.20;;;;;;;21.88;86.93;100418.63;107159;1259;95824;-83
2023/07/13 12:41:38;;;;;;;7.80;6.90;;;;;;;21.93;86.94;100418.44;106740;1254;98641;-83
2023/07/13 12:44:28;;;;;;;9.20;6.90;;;;;;;21.97;87.04;100414.95;106668;1261;99152;-82
2023/07/13 12:47:15;;;;;;;9.90;7.10;;;;;;;22.01;87.45;100415.58;106596;1254;97881;-83
2023/07/13 12:50:06;;;;;;;8.00;6.90;;;;;;;22.05;87.40;100411.02;106556;1254;95247;-83